< < Back
Terminal Aerodrome Forecast


Current Version              Previous Versions:   1  2  3  4  5  6  7  8  9  

Terminal Aerodrome Forecast

136
FTUS42 KILM 010159 AAA
TAFILM
TAF AMD
KILM 010159Z 0102/0124 VRB04KT P6SM SCT100
     FM010300 VRB03KT P6SM SCT120
      TEMPO 0104/0108 5SM BR
     FM010800 VRB03KT 4SM BR SCT008 BKN040
     FM011100 VRB04KT P6SM SCT050 BKN100
     FM011300 VRB04KT P6SM SCT060 BKN100
      TEMPO 0113/0117 5SM -SHRA BKN050
     FM011700 16006KT P6SM VCSH BKN040 BKN100
      TEMPO 0117/0121 5SM -TSRA BKN035CB
     FM012100 17010KT P6SM SCT040 BKN080=

Latest METAR

303
SAUS70 KWBC 012000 RRH
MTRILM
METAR KILM 011953Z 04004KT 10SM BKN050 BKN060 OVC080 32/21 A2988 RMK AO2
SLP119 T03220206


USA.gov is the U.S. government's official web portal to all federal, state and local government web resources and services.